Time;durP1;ratioP1;P1;durP2;ratioP2;P2;SDS_P1;SDS_P2;PMS_P1;PMS_P2;Temp;Humidity;BMP_temperature;BMP_pressure;BME280_temperature;BME280_humidity;BME280_pressure;Samples;Min_cycle;Max_cycle;Signal;HPM_P1;HPM_P2
2023/05/02 00:00:33;;;;;;;14.50;8.20;;;12.00;99.90;;;;;;5049262;28;20045;-64
2023/05/02 00:02:59;;;;;;;17.20;9.07;;;11.90;99.90;;;;;;5049224;28;20044;-65
2023/05/02 00:05:25;;;;;;;17.17;9.27;;;11.90;99.90;;;;;;5051138;28;20083;-65
2023/05/02 00:07:51;;;;;;;18.15;9.52;;;11.90;99.90;;;;;;5050894;28;20140;-65
2023/05/02 00:10:18;;;;;;;18.45;9.13;;;11.80;99.90;;;;;;5038753;28;20099;-65
2023/05/02 00:12:43;;;;;;;16.50;8.70;;;11.80;99.90;;;;;;5030861;28;20123;-65
2023/05/02 00:15:09;;;;;;;14.60;8.75;;;11.80;99.90;;;;;;5034399;28;20479;-65
2023/05/02 00:17:35;;;;;;;12.02;7.03;;;11.80;99.90;;;;;;5050963;28;20045;-65
2023/05/02 00:20:03;;;;;;;13.63;6.75;;;11.80;99.90;;;;;;5039746;28;20037;-66
2023/05/02 00:22:29;;;;;;;13.43;6.57;;;11.70;99.90;;;;;;5041886;28;20045;-65
2023/05/02 00:24:57;;;;;;;13.70;6.40;;;11.70;99.90;;;;;;5031158;28;20038;-65
2023/05/02 00:27:23;;;;;;;12.85;5.70;;;11.60;99.90;;;;;;5030163;28;20385;-67
2023/05/02 00:29:51;;;;;;;12.70;5.38;;;11.60;99.90;;;;;;5034040;28;20099;-65
2023/05/02 00:32:17;;;;;;;14.25;5.40;;;11.60;99.90;;;;;;5028664;28;20045;-65
2023/05/02 00:34:42;;;;;;;13.27;4.60;;;11.50;99.90;;;;;;5029476;28;20046;-65
2023/05/02 00:37:08;;;;;;;10.38;4.75;;;11.40;99.90;;;;;;5037870;28;20082;-65
2023/05/02 00:39:34;;;;;;;11.05;4.18;;;11.40;99.90;;;;;;5038163;28;22077;-65
2023/05/02 00:42:00;;;;;;;12.30;4.50;;;11.40;99.90;;;;;;5035434;28;20057;-64
2023/05/02 00:44:27;;;;;;;12.43;4.50;;;11.30;99.90;;;;;;5035581;28;20641;-64
2023/05/02 00:46:53;;;;;;;9.75;3.85;;;11.30;99.90;;;;;;5039588;28;20376;-65
2023/05/02 00:49:19;;;;;;;10.45;3.75;;;11.20;99.90;;;;;;5040488;28;20045;-64
2023/05/02 00:51:45;;;;;;;11.77;4.13;;;11.20;99.90;;;;;;5040870;28;20159;-64
2023/05/02 00:54:12;;;;;;;8.35;3.25;;;11.20;99.90;;;;;;5040265;28;20045;-64
2023/05/02 00:56:38;;;;;;;9.65;3.03;;;11.20;99.90;;;;;;5033995;28;20042;-65
2023/05/02 00:59:06;;;;;;;10.43;3.80;;;11.20;99.90;;;;;;5036258;28;20045;-65
2023/05/02 01:01:31;;;;;;;11.70;3.85;;;11.10;99.90;;;;;;5042823;28;20042;-65
2023/05/02 01:04:03;;;;;;;14.95;3.90;;;11.20;99.90;;;;;;5046408;28;20042;-65
2023/05/02 01:06:52;;;;;;;11.88;3.45;;;11.20;99.90;;;;;;5040314;28;20050;-64
2023/05/02 01:09:37;;;;;;;11.90;3.75;;;11.20;99.90;;;;;;5037383;28;20107;-65
2023/05/02 01:12:41;;;;;;;10.60;3.80;;;11.10;99.90;;;;;;5038999;28;20049;-65
2023/05/02 01:15:21;;;;;;;11.45;4.22;;;11.20;99.90;;;;;;5044937;28;20050;-65
2023/05/02 01:17:48;;;;;;;11.50;3.65;;;11.10;99.90;;;;;;5033352;28;20511;-65
2023/05/02 01:20:19;;;;;;;11.95;3.40;;;11.10;99.90;;;;;;5036356;28;20037;-66
2023/05/02 01:22:45;;;;;;;10.90;3.88;;;11.10;99.90;;;;;;5049195;28;20371;-64
2023/05/02 01:25:33;;;;;;;10.85;3.50;;;11.20;99.90;;;;;;5048255;28;20041;-65
2023/05/02 01:28:27;;;;;;;13.00;3.50;;;11.10;99.90;;;;;;5046894;28;20099;-64
2023/05/02 01:30:55;;;;;;;10.73;2.88;;;11.10;99.90;;;;;;5044807;28;20531;-65
2023/05/02 01:33:23;;;;;;;11.88;2.88;;;11.10;99.90;;;;;;5034844;28;20048;-65
2023/05/02 01:35:51;;;;;;;9.27;3.00;;;11.10;99.90;;;;;;5043701;28;20115;-65
2023/05/02 01:38:18;;;;;;;8.27;2.80;;;11.10;99.90;;;;;;5035871;28;20398;-66
2023/05/02 01:40:48;;;;;;;8.70;3.22;;;11.00;99.90;;;;;;5038824;28;20076;-65
2023/05/02 01:43:15;;;;;;;8.30;2.47;;;11.00;99.90;;;;;;5046802;28;20059;-64
2023/05/02 01:45:44;;;;;;;10.07;2.88;;;11.00;99.90;;;;;;5044007;28;20050;-65
2023/05/02 01:48:10;;;;;;;12.23;2.83;;;11.00;99.90;;;;;;5040004;28;20099;-65
2023/05/02 01:50:41;;;;;;;8.65;2.67;;;11.00;99.90;;;;;;5050435;28;20056;-65
2023/05/02 01:53:10;;;;;;;8.23;2.90;;;11.00;99.90;;;;;;5034415;28;20506;-65
2023/05/02 01:55:38;;;;;;;5.82;2.40;;;11.00;99.90;;;;;;5049071;28;20129;-65
2023/05/02 01:58:05;;;;;;;6.70;2.83;;;11.00;99.90;;;;;;5039204;28;20435;-65
2023/05/02 02:00:31;;;;;;;8.65;2.70;;;10.90;99.90;;;;;;5040178;28;20072;-66
2023/05/02 02:02:58;;;;;;;8.43;2.45;;;10.90;99.90;;;;;;5046916;28;20033;-64
2023/05/02 02:05:24;;;;;;;7.57;2.60;;;10.90;99.90;;;;;;5040917;28;20159;-64
2023/05/02 02:07:50;;;;;;;9.02;2.75;;;10.90;99.90;;;;;;5045901;28;20049;-64
2023/05/02 02:10:16;;;;;;;9.57;2.60;;;10.90;99.90;;;;;;5051643;28;20136;-65
2023/05/02 02:12:52;;;;;;;7.95;2.38;;;10.80;99.90;;;;;;5037505;28;20050;-65
2023/05/02 02:15:30;;;;;;;11.10;2.70;;;10.90;99.90;;;;;;5033328;28;20048;-65
2023/05/02 02:18:00;;;;;;;7.32;2.50;;;10.80;99.90;;;;;;5031509;28;20518;-64
2023/05/02 02:20:28;;;;;;;5.95;2.33;;;10.90;99.90;;;;;;5049596;28;20120;-64
2023/05/02 02:22:56;;;;;;;7.70;2.03;;;10.80;99.90;;;;;;5046603;28;20116;-65
2023/05/02 02:25:24;;;;;;;6.60;2.20;;;10.80;99.90;;;;;;5038896;28;20045;-64
2023/05/02 02:27:50;;;;;;;6.32;2.15;;;10.80;99.90;;;;;;5042317;28;20054;-65
2023/05/02 02:30:16;;;;;;;6.97;2.28;;;10.80;99.90;;;;;;5035289;28;20516;-64
2023/05/02 02:32:41;;;;;;;6.90;2.30;;;10.80;99.90;;;;;;5045511;28;20049;-64
2023/05/02 02:35:08;;;;;;;5.75;2.10;;;10.80;99.90;;;;;;5048350;28;20540;-64
2023/05/02 02:38:01;;;;;;;9.75;2.20;;;10.80;99.90;;;;;;5035256;28;20140;-64
2023/05/02 02:40:46;;;;;;;4.28;1.95;;;10.80;99.90;;;;;;5039052;28;20145;-64
2023/05/02 02:43:22;;;;;;;6.20;2.40;;;10.70;99.90;;;;;;5043677;28;20038;-64
2023/05/02 02:46:09;;;;;;;6.18;2.60;;;10.60;99.90;;;;;;5040024;28;20072;-63
2023/05/02 02:48:42;;;;;;;9.23;3.05;;;10.60;99.90;;;;;;5047206;28;20662;-64
2023/05/02 02:51:12;;;;;;;8.18;2.88;;;10.50;99.90;;;;;;5045072;28;20060;-64
2023/05/02 02:53:45;;;;;;;10.85;3.42;;;10.40;99.90;;;;;;5042237;28;20042;-64
2023/05/02 02:56:18;;;;;;;12.00;3.28;;;10.30;99.90;;;;;;5050115;28;20444;-64
2023/05/02 02:59:08;;;;;;;12.68;3.78;;;10.20;99.90;;;;;;5044161;28;20124;-63
2023/05/02 03:01:38;;;;;;;12.00;3.85;;;10.20;99.90;;;;;;5032126;28;20057;-65
2023/05/02 03:04:06;;;;;;;18.17;4.32;;;10.10;99.90;;;;;;5033021;28;20612;-66
2023/05/02 03:06:31;;;;;;;15.07;4.50;;;9.90;99.90;;;;;;5044642;28;20132;-64
2023/05/02 03:08:57;;;;;;;15.65;4.43;;;9.90;99.90;;;;;;5045741;28;20044;-64
2023/05/02 03:11:23;;;;;;;18.13;4.78;;;9.90;99.90;;;;;;5035228;28;20468;-64
2023/05/02 03:13:48;;;;;;;15.98;4.28;;;9.90;99.90;;;;;;5037753;28;20033;-65
2023/05/02 03:16:34;;;;;;;18.17;4.15;;;9.80;99.90;;;;;;5039929;28;20083;-67
2023/05/02 03:19:00;;;;;;;15.13;4.95;;;9.80;99.90;;;;;;5032915;28;20046;-64
2023/05/02 03:21:25;;;;;;;19.75;4.07;;;9.70;99.90;;;;;;5049950;28;20033;-65
2023/05/02 03:23:51;;;;;;;19.02;4.10;;;9.60;99.90;;;;;;5041354;28;20107;-64
2023/05/02 03:26:17;;;;;;;21.42;4.47;;;9.60;99.90;;;;;;5036410;28;20049;-64
2023/05/02 03:28:45;;;;;;;19.95;5.03;;;9.60;99.90;;;;;;5041813;28;20041;-65
2023/05/02 03:31:14;;;;;;;24.10;4.60;;;9.60;99.90;;;;;;5043067;28;20131;-65
2023/05/02 03:33:40;;;;;;;16.67;4.07;;;9.50;99.90;;;;;;5050451;28;20041;-65
2023/05/02 03:36:06;;;;;;;15.23;3.92;;;9.40;99.90;;;;;;5046356;28;20416;-65
2023/05/02 03:38:31;;;;;;;15.88;4.60;;;9.50;99.90;;;;;;5047323;28;20056;-64
2023/05/02 03:40:57;;;;;;;17.17;4.18;;;9.40;99.90;;;;;;5034044;28;20465;-64
2023/05/02 03:43:23;;;;;;;20.48;4.47;;;9.30;99.90;;;;;;5038643;28;20037;-64
2023/05/02 03:45:48;;;;;;;15.55;3.83;;;9.30;99.90;;;;;;5037165;28;20041;-64
2023/05/02 03:48:14;;;;;;;15.52;4.47;;;9.10;99.90;;;;;;5030916;28;20045;-64
2023/05/02 03:50:40;;;;;;;19.13;4.05;;;9.00;99.90;;;;;;5047607;28;20038;-65
2023/05/02 03:53:07;;;;;;;19.02;4.90;;;9.10;99.90;;;;;;5039451;28;20437;-64
2023/05/02 03:55:32;;;;;;;20.90;4.55;;;9.00;99.90;;;;;;5038029;28;20077;-65
2023/05/02 03:57:58;;;;;;;22.27;4.50;;;9.00;99.90;;;;;;5049796;28;20454;-65
2023/05/02 04:00:24;;;;;;;19.55;4.57;;;9.10;99.90;;;;;;5048992;28;20037;-64
2023/05/02 04:02:50;;;;;;;14.43;3.70;;;9.10;99.90;;;;;;5050698;28;20075;-65
2023/05/02 04:05:15;;;;;;;15.32;4.13;;;9.10;99.90;;;;;;5047522;28;20400;-64
2023/05/02 04:07:41;;;;;;;19.75;4.95;;;9.00;99.90;;;;;;5049337;28;20048;-64
2023/05/02 04:10:15;;;;;;;14.20;3.75;;;9.00;99.90;;;;;;5047732;28;20115;-65
2023/05/02 04:12:43;;;;;;;15.40;4.05;;;9.00;99.90;;;;;;5037757;28;20067;-64
2023/05/02 04:15:10;;;;;;;15.90;4.65;;;9.00;99.90;;;;;;5030899;28;20054;-64
2023/05/02 04:17:36;;;;;;;17.17;4.40;;;9.00;99.90;;;;;;5048296;28;20044;-64
2023/05/02 04:20:03;;;;;;;15.55;3.60;;;9.00;99.90;;;;;;5044263;28;20038;-64
2023/05/02 04:22:28;;;;;;;13.25;3.63;;;8.90;99.90;;;;;;5048956;28;20053;-64
2023/05/02 04:24:54;;;;;;;16.23;3.40;;;8.90;99.90;;;;;;5048314;28;20132;-64
2023/05/02 04:27:20;;;;;;;14.48;3.53;;;8.90;99.90;;;;;;5035426;28;20084;-65
2023/05/02 04:29:49;;;;;;;13.27;3.58;;;8.80;99.90;;;;;;5033499;28;20049;-64
2023/05/02 04:32:15;;;;;;;16.63;3.88;;;8.80;99.90;;;;;;5042432;28;20069;-64
2023/05/02 04:34:41;;;;;;;14.48;3.10;;;8.80;99.90;;;;;;5043429;28;20076;-66
2023/05/02 04:37:09;;;;;;;13.25;3.08;;;8.90;99.90;;;;;;5049126;28;20048;-64
2023/05/02 04:39:34;;;;;;;16.10;3.90;;;8.80;99.90;;;;;;5049365;28;20459;-65
2023/05/02 04:42:00;;;;;;;13.13;3.17;;;8.80;99.90;;;;;;5031910;28;20384;-64
2023/05/02 04:44:26;;;;;;;13.18;3.20;;;8.80;99.90;;;;;;5030461;28;20393;-65
2023/05/02 04:46:52;;;;;;;13.45;3.08;;;8.80;99.90;;;;;;5044992;28;20055;-64
2023/05/02 04:49:17;;;;;;;12.52;3.15;;;8.80;99.90;;;;;;5033038;28;20049;-64
2023/05/02 04:51:43;;;;;;;10.38;3.10;;;8.80;99.90;;;;;;5039740;28;20037;-65
2023/05/02 04:54:09;;;;;;;15.10;3.10;;;8.70;99.90;;;;;;5033345;28;20427;-65
2023/05/02 04:56:35;;;;;;;13.10;3.22;;;8.70;99.90;;;;;;5032415;28;20049;-64
2023/05/02 04:59:06;;;;;;;9.10;2.65;;;8.70;99.90;;;;;;5032116;28;20046;-67
2023/05/02 05:01:32;;;;;;;13.98;2.80;;;8.80;99.90;;;;;;5040924;28;20117;-65
2023/05/02 05:03:58;;;;;;;15.50;2.80;;;8.70;99.90;;;;;;5038514;28;20478;-65
2023/05/02 05:06:26;;;;;;;12.63;2.63;;;8.80;99.90;;;;;;5035378;28;20034;-64
2023/05/02 05:08:52;;;;;;;12.18;2.47;;;8.70;99.90;;;;;;5035381;28;20042;-65
2023/05/02 05:11:17;;;;;;;12.25;3.17;;;8.70;99.90;;;;;;5034645;28;20095;-64
2023/05/02 05:13:43;;;;;;;11.48;2.58;;;8.60;99.90;;;;;;5038057;28;20040;-65
2023/05/02 05:16:09;;;;;;;12.48;2.67;;;8.60;99.90;;;;;;5042535;28;20037;-65
2023/05/02 05:18:39;;;;;;;12.20;2.85;;;8.70;99.90;;;;;;5043876;28;20037;-64
2023/05/02 05:21:08;;;;;;;10.90;2.47;;;8.80;99.90;;;;;;5039264;28;20033;-64
2023/05/02 05:23:35;;;;;;;9.23;2.05;;;8.90;99.90;;;;;;5039079;28;20049;-63
2023/05/02 05:26:16;;;;;;;9.18;2.33;;;8.80;99.90;;;;;;5037020;28;20037;-63
2023/05/02 05:28:43;;;;;;;12.73;2.58;;;8.80;99.90;;;;;;5036427;28;20546;-66
2023/05/02 05:31:17;;;;;;;10.30;2.05;;;8.80;99.90;;;;;;5049099;28;20039;-64
2023/05/02 05:33:43;;;;;;;11.68;2.08;;;8.80;99.90;;;;;;5040252;28;20455;-65
2023/05/02 05:36:14;;;;;;;11.35;2.40;;;8.70;99.90;;;;;;5041905;28;20043;-65
2023/05/02 05:38:40;;;;;;;8.88;1.88;;;8.70;99.90;;;;;;5040223;28;20446;-63
2023/05/02 05:41:06;;;;;;;7.63;2.05;;;8.70;99.90;;;;;;5042895;28;20133;-64
2023/05/02 05:43:32;;;;;;;8.45;2.17;;;8.50;99.90;;;;;;5049263;28;20621;-64
2023/05/02 05:45:58;;;;;;;7.78;1.95;;;8.60;99.90;;;;;;5034275;28;20080;-65
2023/05/02 05:48:24;;;;;;;6.25;1.90;;;8.60;99.90;;;;;;5050368;28;20443;-65
2023/05/02 05:50:51;;;;;;;7.07;1.98;;;8.70;99.90;;;;;;5045689;28;20131;-66
2023/05/02 05:53:17;;;;;;;6.95;1.73;;;8.80;99.90;;;;;;5059279;28;20080;-64
2023/05/02 05:55:43;;;;;;;6.10;1.70;;;8.90;99.90;;;;;;5048816;28;20154;-64
2023/05/02 05:58:08;;;;;;;7.18;1.95;;;9.00;99.90;;;;;;5051600;28;20116;-65
2023/05/02 06:00:35;;;;;;;10.07;1.92;;;9.10;99.90;;;;;;5055928;28;20044;-64
2023/05/02 06:03:00;;;;;;;6.80;1.48;;;9.10;99.90;;;;;;5050335;28;20033;-64
2023/05/02 06:05:26;;;;;;;11.25;1.85;;;9.20;99.90;;;;;;5047515;28;20056;-65
2023/05/02 06:07:52;;;;;;;8.55;1.98;;;9.40;99.90;;;;;;5045665;28;20041;-65
2023/05/02 06:10:17;;;;;;;10.60;2.10;;;9.40;99.90;;;;;;5050575;28;20060;-64
2023/05/02 06:12:43;;;;;;;5.85;1.75;;;9.50;99.90;;;;;;5050560;28;20045;-65
2023/05/02 06:15:09;;;;;;;7.75;1.98;;;9.50;99.90;;;;;;5040493;28;20194;-65
2023/05/02 06:17:34;;;;;;;6.70;1.90;;;9.50;99.90;;;;;;5051912;28;20044;-65
2023/05/02 06:20:00;;;;;;;7.93;2.03;;;9.70;99.90;;;;;;5042077;28;20049;-64
2023/05/02 06:22:25;;;;;;;9.80;2.05;;;9.40;99.90;;;;;;5052454;28;20064;-64
2023/05/02 06:24:51;;;;;;;8.65;2.20;;;9.50;99.90;;;;;;5038168;28;20068;-64
2023/05/02 06:27:17;;;;;;;8.73;2.03;;;9.80;99.90;;;;;;5037476;28;20075;-64
2023/05/02 06:29:42;;;;;;;11.88;2.58;;;9.90;99.90;;;;;;5050815;28;20078;-64
2023/05/02 06:32:08;;;;;;;10.93;2.08;;;10.10;99.90;;;;;;5042189;28;20441;-64
2023/05/02 06:34:34;;;;;;;7.35;1.90;;;10.10;99.90;;;;;;5042901;28;20389;-64
2023/05/02 06:37:00;;;;;;;8.43;2.30;;;10.20;99.90;;;;;;5039204;28;20045;-64
2023/05/02 06:39:25;;;;;;;12.15;2.70;;;10.10;99.90;;;;;;5039102;28;20041;-63
2023/05/02 06:41:56;;;;;;;7.15;2.30;;;10.20;99.90;;;;;;5040656;28;20146;-64
2023/05/02 06:44:22;;;;;;;8.23;1.77;;;10.00;99.90;;;;;;5037695;28;20057;-64
2023/05/02 06:46:48;;;;;;;9.10;2.30;;;10.30;99.90;;;;;;5037942;28;20644;-63
2023/05/02 06:49:14;;;;;;;7.38;1.95;;;10.40;99.90;;;;;;5045166;28;20041;-63
2023/05/02 06:51:39;;;;;;;7.63;2.05;;;10.60;99.90;;;;;;5039935;28;20052;-63
2023/05/02 06:54:05;;;;;;;10.77;2.05;;;10.50;99.90;;;;;;5039038;28;20057;-64
2023/05/02 06:56:31;;;;;;;7.97;2.13;;;10.40;99.90;;;;;;5035757;28;20042;-64
2023/05/02 06:58:56;;;;;;;8.23;1.98;;;10.30;99.90;;;;;;5031260;28;20049;-64
2023/05/02 07:01:22;;;;;;;9.35;2.08;;;10.30;99.90;;;;;;5038266;28;20387;-65
2023/05/02 07:03:48;;;;;;;8.00;2.08;;;10.40;99.90;;;;;;5037980;28;20044;-65
2023/05/02 07:06:13;;;;;;;6.20;2.10;;;10.50;99.90;;;;;;5039441;28;20037;-65
2023/05/02 07:08:39;;;;;;;8.93;2.22;;;10.50;99.90;;;;;;5040244;28;20033;-64
2023/05/02 07:11:04;;;;;;;9.05;2.20;;;10.40;99.90;;;;;;5042839;28;20120;-64
2023/05/02 07:13:30;;;;;;;7.18;1.90;;;10.60;99.90;;;;;;5042015;28;20045;-64
2023/05/02 07:15:56;;;;;;;6.15;2.00;;;10.80;99.90;;;;;;5037200;28;20106;-65
2023/05/02 07:18:21;;;;;;;8.75;2.35;;;10.60;99.90;;;;;;5039064;28;20056;-63
2023/05/02 07:20:47;;;;;;;9.75;2.35;;;10.80;99.90;;;;;;5043917;28;20133;-63
2023/05/02 07:23:13;;;;;;;7.47;1.92;;;10.80;99.90;;;;;;5037320;28;20045;-65
2023/05/02 07:25:38;;;;;;;7.70;2.13;;;10.80;99.90;;;;;;5038570;28;20041;-65
2023/05/02 07:28:05;;;;;;;10.98;1.90;;;10.80;99.90;;;;;;5037590;28;20405;-63
2023/05/02 07:30:30;;;;;;;10.05;2.35;;;10.90;99.90;;;;;;5035712;28;20245;-64
2023/05/02 07:32:56;;;;;;;10.70;2.30;;;10.90;99.90;;;;;;5037725;28;20116;-64
2023/05/02 07:35:22;;;;;;;7.68;2.00;;;10.80;99.90;;;;;;5038832;28;20037;-65
2023/05/02 07:37:47;;;;;;;9.07;2.15;;;10.90;99.90;;;;;;5047894;28;20044;-65
2023/05/02 07:40:13;;;;;;;6.78;2.03;;;10.90;99.90;;;;;;5045040;28;20049;-64
2023/05/02 07:42:40;;;;;;;13.35;3.35;;;10.80;99.90;;;;;;5044306;28;20045;-65
2023/05/02 07:45:07;;;;;;;10.02;2.10;;;10.80;99.90;;;;;;5035170;28;20041;-65
2023/05/02 07:47:32;;;;;;;9.57;2.58;;;10.90;99.90;;;;;;5035323;28;20464;-66
2023/05/02 07:49:58;;;;;;;7.53;2.10;;;11.00;99.90;;;;;;5046920;28;20174;-65
2023/05/02 07:52:24;;;;;;;10.43;2.88;;;10.90;99.90;;;;;;5047565;28;20033;-65
2023/05/02 07:54:51;;;;;;;7.30;2.30;;;10.90;99.90;;;;;;5048101;28;20060;-65
2023/05/02 07:57:17;;;;;;;8.93;2.40;;;10.80;99.90;;;;;;5045792;28;20036;-64
2023/05/02 07:59:43;;;;;;;8.65;2.47;;;10.90;99.90;;;;;;5046896;28;20118;-64
2023/05/02 08:02:10;;;;;;;7.95;1.80;;;10.90;99.90;;;;;;5045992;28;20060;-64
2023/05/02 08:04:35;;;;;;;9.98;2.30;;;10.90;99.90;;;;;;5041253;28;20125;-64
2023/05/02 08:07:01;;;;;;;7.55;2.00;;;10.90;99.90;;;;;;5043388;28;20401;-65
2023/05/02 08:09:26;;;;;;;9.38;2.10;;;10.80;99.90;;;;;;5048239;28;20044;-62
2023/05/02 08:11:52;;;;;;;10.57;2.70;;;10.90;99.90;;;;;;5044861;28;20080;-62
2023/05/02 08:14:17;;;;;;;7.93;2.00;;;10.70;99.90;;;;;;5047110;28;20081;-63
2023/05/02 08:16:43;;;;;;;9.80;2.13;;;10.70;99.90;;;;;;5048575;28;20048;-64
2023/05/02 08:19:09;;;;;;;9.10;2.22;;;10.80;99.90;;;;;;5047033;28;20519;-62
2023/05/02 08:21:35;;;;;;;6.55;2.20;;;10.90;99.90;;;;;;5042965;28;20415;-65
2023/05/02 08:24:01;;;;;;;10.68;2.40;;;11.00;99.90;;;;;;5048077;28;20068;-63
2023/05/02 08:26:27;;;;;;;6.03;2.20;;;11.10;99.90;;;;;;5047297;28;20079;-66
2023/05/02 08:28:53;;;;;;;8.00;2.38;;;11.40;99.90;;;;;;5048762;28;20080;-64
2023/05/02 08:31:19;;;;;;;5.53;2.15;;;11.50;98.20;;;;;;5048960;28;20041;-63
2023/05/02 08:33:46;;;;;;;6.60;2.35;;;11.50;97.50;;;;;;5049681;28;20087;-64
2023/05/02 08:36:13;;;;;;;8.85;2.15;;;11.70;98.00;;;;;;5042452;28;20429;-64
2023/05/02 08:38:39;;;;;;;9.85;2.25;;;11.70;97.10;;;;;;5048792;28;20136;-63
2023/05/02 08:41:13;;;;;;;7.68;2.05;;;11.50;95.90;;;;;;5049909;28;20091;-64
2023/05/02 08:43:39;;;;;;;10.25;2.58;;;11.70;97.60;;;;;;5012800;28;20137;-63
2023/05/02 08:46:07;;;;;;;7.60;2.50;;;11.60;98.70;;;;;;5030158;28;20042;-65
2023/05/02 08:48:35;;;;;;;8.95;2.30;;;11.60;99.90;;;;;;5029715;28;20152;-64
2023/05/02 08:51:02;;;;;;;9.70;2.65;;;11.50;99.90;;;;;;5030132;28;20049;-64
2023/05/02 08:53:32;;;;;;;8.25;2.78;;;11.50;99.90;;;;;;5029610;28;20420;-64
2023/05/02 08:55:59;;;;;;;8.05;2.30;;;11.60;99.90;;;;;;5029727;28;20060;-64
2023/05/02 08:58:25;;;;;;;8.20;2.65;;;11.70;99.90;;;;;;5033744;28;20045;-64
2023/05/02 09:00:52;;;;;;;13.45;3.17;;;11.90;99.90;;;;;;5033931;28;20045;-64
2023/05/02 09:03:36;;;;;;;12.52;2.97;;;12.00;99.90;;;;;;5039217;28;20093;-64
2023/05/02 09:06:20;;;;;;;8.93;2.40;;;12.00;99.90;;;;;;5052744;28;20125;-63
2023/05/02 09:08:48;;;;;;;8.53;2.53;;;12.20;99.90;;;;;;5053090;28;20048;-64
2023/05/02 09:11:15;;;;;;;9.52;2.35;;;12.60;99.90;;;;;;5033906;28;20378;-64
2023/05/02 09:13:45;;;;;;;6.78;1.98;;;12.80;99.90;;;;;;5033856;28;20217;-64
2023/05/02 09:16:25;;;;;;;11.10;2.42;;;12.90;99.30;;;;;;5032220;28;20330;-64
2023/05/02 09:18:52;;;;;;;7.88;2.55;;;12.80;97.10;;;;;;5034522;28;20184;-64
2023/05/02 09:21:20;;;;;;;8.32;2.45;;;12.70;98.70;;;;;;5033650;28;20053;-63
2023/05/02 09:23:48;;;;;;;9.25;2.30;;;12.60;99.40;;;;;;5033462;28;20499;-64
2023/05/02 09:26:35;;;;;;;9.68;2.78;;;12.40;99.30;;;;;;5033836;28;20047;-64
2023/05/02 09:29:04;;;;;;;7.38;2.40;;;12.20;99.20;;;;;;5048943;28;20423;-64
2023/05/02 09:31:36;;;;;;;11.05;2.97;;;12.30;99.30;;;;;;5042275;28;20095;-63
2023/05/02 09:34:15;;;;;;;7.25;1.90;;;12.00;99.70;;;;;;5046204;28;20057;-64
2023/05/02 09:36:46;;;;;;;6.88;2.58;;;11.80;99.90;;;;;;5052770;28;20356;-64
2023/05/02 09:39:20;;;;;;;10.45;2.42;;;11.80;99.90;;;;;;5052924;28;20400;-64
2023/05/02 09:41:47;;;;;;;7.35;2.17;;;11.70;99.90;;;;;;5051512;28;20095;-64
2023/05/02 09:44:20;;;;;;;8.05;2.28;;;11.70;99.90;;;;;;5044025;28;20030;-63
2023/05/02 09:46:52;;;;;;;8.20;2.63;;;12.00;99.90;;;;;;5032727;28;20562;-63
2023/05/02 09:49:18;;;;;;;6.90;2.10;;;12.00;99.90;;;;;;5032597;28;20112;-64
2023/05/02 09:51:46;;;;;;;7.05;2.35;;;12.10;99.90;;;;;;5031458;28;20507;-64
2023/05/02 09:54:12;;;;;;;8.48;2.60;;;12.10;99.90;;;;;;5032906;28;20404;-63
2023/05/02 09:56:53;;;;;;;7.30;2.22;;;12.40;99.90;;;;;;5032777;28;20049;-64
2023/05/02 09:59:18;;;;;;;6.78;2.15;;;12.30;98.40;;;;;;5037037;28;20041;-64
2023/05/02 10:01:44;;;;;;;8.30;2.13;;;12.60;99.00;;;;;;5032550;28;20042;-64
2023/05/02 10:04:17;;;;;;;6.00;2.10;;;12.50;98.30;;;;;;5032544;28;20102;-62
2023/05/02 10:06:44;;;;;;;9.63;2.30;;;12.60;97.40;;;;;;5033120;28;20112;-64
2023/05/02 10:09:11;;;;;;;7.70;1.85;;;12.70;97.60;;;;;;5031376;28;20400;-63
2023/05/02 10:11:48;;;;;;;6.90;2.05;;;12.70;95.10;;;;;;5029745;28;20085;-63
2023/05/02 10:14:18;;;;;;;7.25;2.08;;;12.70;94.00;;;;;;5051496;28;20107;-64
2023/05/02 10:17:01;;;;;;;8.10;2.22;;;12.90;93.20;;;;;;5052475;28;20148;-63
2023/05/02 10:19:30;;;;;;;6.55;1.80;;;13.00;92.80;;;;;;5038148;28;20049;-64
2023/05/02 10:21:58;;;;;;;6.75;1.95;;;13.10;92.40;;;;;;5032521;28;20404;-64
2023/05/02 10:24:25;;;;;;;8.15;1.98;;;12.90;92.10;;;;;;5031210;28;20045;-64
2023/05/02 10:26:51;;;;;;;9.07;2.00;;;12.90;92.40;;;;;;5041353;28;20041;-63
2023/05/02 10:29:17;;;;;;;8.82;1.83;;;13.10;93.00;;;;;;5051107;28;20040;-63
2023/05/02 10:31:44;;;;;;;6.75;1.70;;;13.20;92.40;;;;;;5052445;28;20051;-64
2023/05/02 10:34:11;;;;;;;7.18;1.98;;;13.20;91.70;;;;;;5046844;28;20089;-64
2023/05/02 10:36:36;;;;;;;7.95;1.65;;;13.10;91.10;;;;;;5050996;28;20040;-63
2023/05/02 10:39:02;;;;;;;6.88;1.70;;;13.30;90.90;;;;;;5047659;28;20127;-64
2023/05/02 10:41:31;;;;;;;6.95;2.00;;;13.60;90.30;;;;;;5032242;28;20050;-64
2023/05/02 10:43:57;;;;;;;7.45;1.70;;;13.80;90.20;;;;;;5030643;28;20041;-63
2023/05/02 10:46:40;;;;;;;5.63;1.63;;;13.80;87.00;;;;;;5040635;28;20462;-66
2023/05/02 10:49:08;;;;;;;5.15;2.00;;;13.70;84.70;;;;;;5042587;28;20103;-67
2023/05/02 10:51:35;;;;;;;5.97;1.55;;;14.00;86.40;;;;;;5045510;28;20053;-65
2023/05/02 10:54:16;;;;;;;6.72;1.75;;;13.90;87.60;;;;;;5035781;28;20068;-66
2023/05/02 10:57:07;;;;;;;6.60;1.67;;;13.90;86.40;;;;;;5045950;28;20467;-64
2023/05/02 10:59:41;;;;;;;8.02;1.88;;;13.80;82.20;;;;;;5038135;28;20046;-63
2023/05/02 11:02:22;;;;;;;5.30;1.70;;;14.00;87.10;;;;;;5048236;28;20068;-64
2023/05/02 11:05:07;;;;;;;8.40;1.73;;;14.50;83.60;;;;;;5042743;28;20303;-63
2023/05/02 11:07:34;;;;;;;5.50;1.90;;;14.80;81.40;;;;;;5051110;28;20059;-64
2023/05/02 11:10:21;;;;;;;6.95;1.67;;;14.80;81.40;;;;;;5037745;28;20099;-63
2023/05/02 11:12:48;;;;;;;6.25;1.63;;;14.90;79.30;;;;;;5037980;28;20049;-64
2023/05/02 11:15:34;;;;;;;6.93;1.75;;;14.70;80.50;;;;;;5048735;28;20540;-63
2023/05/02 11:18:06;;;;;;;7.55;1.80;;;14.50;80.10;;;;;;5047419;28;20108;-63
2023/05/02 11:20:36;;;;;;;5.13;1.88;;;14.40;80.20;;;;;;5045142;28;20059;-62
2023/05/02 11:23:20;;;;;;;6.78;1.90;;;14.30;78.10;;;;;;5048374;28;20037;-62
2023/05/02 11:25:56;;;;;;;4.75;1.67;;;14.40;79.80;;;;;;5045001;28;20095;-64
2023/05/02 11:28:46;;;;;;;6.20;1.65;;;14.50;79.80;;;;;;5043619;28;20104;-63
2023/05/02 11:31:27;;;;;;;8.43;1.88;;;13.90;78.10;;;;;;5050175;28;20111;-63
2023/05/02 11:34:00;;;;;;;7.20;1.60;;;13.90;80.10;;;;;;5045503;28;20110;-63
2023/05/02 11:36:32;;;;;;;5.43;1.40;;;14.00;80.80;;;;;;5046942;28;20152;-62
2023/05/02 11:39:02;;;;;;;7.18;1.42;;;14.00;80.40;;;;;;5046210;28;20033;-63
2023/05/02 11:41:43;;;;;;;4.10;1.50;;;14.00;80.80;;;;;;5048522;28;20083;-63
2023/05/02 11:44:08;;;;;;;3.65;1.40;;;14.20;78.10;;;;;;5047406;28;20056;-63
2023/05/02 11:46:41;;;;;;;5.03;1.35;;;14.00;79.10;;;;;;5049236;28;20419;-63
2023/05/02 11:49:07;;;;;;;5.05;1.50;;;14.00;79.00;;;;;;5047982;28;20041;-64
2023/05/02 11:51:33;;;;;;;4.95;1.20;;;14.30;79.90;;;;;;5047740;28;20060;-63
2023/05/02 11:53:59;;;;;;;4.82;1.30;;;14.40;79.80;;;;;;5049420;28;20088;-64
2023/05/02 11:56:25;;;;;;;6.13;1.55;;;14.60;79.20;;;;;;5052207;28;20040;-64
2023/05/02 11:59:02;;;;;;;2.78;1.13;;;14.50;75.80;;;;;;5030992;28;20512;-64
2023/05/02 12:01:29;;;;;;;3.88;1.40;;;14.70;74.60;;;;;;5045613;28;20087;-64
2023/05/02 12:04:06;;;;;;;5.53;1.55;;;14.90;76.00;;;;;;5048218;28;20060;-64
2023/05/02 12:06:32;;;;;;;4.20;1.17;;;14.90;75.10;;;;;;5045598;28;20567;-63
2023/05/02 12:09:15;;;;;;;4.72;1.38;;;15.00;73.70;;;;;;5048067;28;20040;-65
2023/05/02 12:11:43;;;;;;;7.00;1.30;;;15.00;71.50;;;;;;5046825;28;20516;-63
2023/05/02 12:14:09;;;;;;;4.90;1.20;;;14.90;73.80;;;;;;5045871;28;20120;-63
2023/05/02 12:16:35;;;;;;;4.13;1.05;;;14.90;73.40;;;;;;5045168;28;20080;-65
2023/05/02 12:19:03;;;;;;;5.20;1.45;;;14.80;76.50;;;;;;5048618;28;20076;-65
2023/05/02 12:21:29;;;;;;;4.55;1.40;;;14.70;76.80;;;;;;5039953;28;20304;-64
2023/05/02 12:23:55;;;;;;;3.78;1.02;;;14.70;77.20;;;;;;5037228;28;20041;-65
2023/05/02 12:26:28;;;;;;;3.35;1.33;;;14.70;77.20;;;;;;5052522;28;20081;-64
2023/05/02 12:28:54;;;;;;;5.50;1.70;;;14.80;77.40;;;;;;5039118;28;20049;-66
2023/05/02 12:31:20;;;;;;;5.53;1.42;;;15.00;77.20;;;;;;5037756;28;20184;-64
2023/05/02 12:33:47;;;;;;;5.88;1.80;;;14.80;74.60;;;;;;5044827;28;20476;-64
2023/05/02 12:36:13;;;;;;;5.63;1.63;;;14.80;74.50;;;;;;5043874;28;20546;-64
2023/05/02 12:38:38;;;;;;;5.15;1.42;;;14.80;73.00;;;;;;5048060;28;20045;-64
2023/05/02 12:41:04;;;;;;;4.75;1.45;;;14.90;74.50;;;;;;5046629;28;20110;-64
2023/05/02 12:43:46;;;;;;;4.38;1.30;;;14.70;75.20;;;;;;5049693;28;20353;-65
2023/05/02 12:46:11;;;;;;;2.65;1.15;;;14.90;76.50;;;;;;5050488;28;20045;-63
2023/05/02 12:48:37;;;;;;;6.25;1.65;;;15.00;76.20;;;;;;5049538;28;20314;-64
2023/05/02 12:51:03;;;;;;;4.47;1.50;;;15.00;75.50;;;;;;5043767;28;20378;-63
2023/05/02 12:53:55;;;;;;;4.97;1.40;;;14.90;74.90;;;;;;5048510;28;20127;-64